sensor_id;sensor_type;location;lat;lon;timestamp;P1;durP1;ratioP1;P2;durP2;ratioP2
7108;SDS011;29079;41.930;25.558;2023-02-01T00:01:16;12.88;;;7.93;;
7108;SDS011;29079;41.930;25.558;2023-02-01T00:03:49;14.73;;;8.63;;
7108;SDS011;29079;41.930;25.558;2023-02-01T00:06:22;14.15;;;7.75;;
7108;SDS011;29079;41.930;25.558;2023-02-01T00:08:56;16.10;;;8.55;;
7108;SDS011;29079;41.930;25.558;2023-02-01T00:11:29;10.30;;;7.40;;
7108;SDS011;29079;41.930;25.558;2023-02-01T00:14:04;13.65;;;7.55;;
7108;SDS011;29079;41.930;25.558;2023-02-01T00:16:39;11.70;;;7.75;;
7108;SDS011;29079;41.930;25.558;2023-02-01T00:19:13;11.60;;;7.25;;
7108;SDS011;29079;41.930;25.558;2023-02-01T00:21:47;13.52;;;7.35;;
7108;SDS011;29079;41.930;25.558;2023-02-01T00:24:20;17.10;;;9.88;;
7108;SDS011;29079;41.930;25.558;2023-02-01T00:26:54;12.25;;;7.95;;
7108;SDS011;29079;41.930;25.558;2023-02-01T00:29:29;13.77;;;7.40;;
7108;SDS011;29079;41.930;25.558;2023-02-01T00:32:02;10.63;;;7.38;;
7108;SDS011;29079;41.930;25.558;2023-02-01T00:34:36;11.50;;;6.97;;
7108;SDS011;29079;41.930;25.558;2023-02-01T00:37:10;10.00;;;7.30;;
7108;SDS011;29079;41.930;25.558;2023-02-01T00:39:43;10.65;;;6.38;;
7108;SDS011;29079;41.930;25.558;2023-02-01T00:42:16;9.63;;;6.60;;
7108;SDS011;29079;41.930;25.558;2023-02-01T00:44:51;7.03;;;5.63;;
7108;SDS011;29079;41.930;25.558;2023-02-01T00:47:24;9.07;;;6.65;;
7108;SDS011;29079;41.930;25.558;2023-02-01T00:49:58;8.43;;;6.10;;
7108;SDS011;29079;41.930;25.558;2023-02-01T00:52:31;8.57;;;6.40;;
7108;SDS011;29079;41.930;25.558;2023-02-01T00:55:05;10.82;;;6.93;;
7108;SDS011;29079;41.930;25.558;2023-02-01T00:57:39;13.48;;;7.07;;
7108;SDS011;29079;41.930;25.558;2023-02-01T01:00:14;13.77;;;7.05;;
7108;SDS011;29079;41.930;25.558;2023-02-01T01:02:48;10.50;;;6.95;;
7108;SDS011;29079;41.930;25.558;2023-02-01T01:05:22;11.93;;;6.28;;
7108;SDS011;29079;41.930;25.558;2023-02-01T01:07:55;11.82;;;7.45;;
7108;SDS011;29079;41.930;25.558;2023-02-01T01:10:28;11.40;;;6.50;;
7108;SDS011;29079;41.930;25.558;2023-02-01T01:15:38;10.30;;;6.47;;
7108;SDS011;29079;41.930;25.558;2023-02-01T01:18:12;8.95;;;6.28;;
7108;SDS011;29079;41.930;25.558;2023-02-01T01:20:45;9.18;;;7.07;;
7108;SDS011;29079;41.930;25.558;2023-02-01T01:23:20;15.05;;;7.03;;
7108;SDS011;29079;41.930;25.558;2023-02-01T01:25:53;9.23;;;6.13;;
7108;SDS011;29079;41.930;25.558;2023-02-01T01:28:27;9.30;;;6.82;;
7108;SDS011;29079;41.930;25.558;2023-02-01T01:31:02;14.50;;;7.15;;
7108;SDS011;29079;41.930;25.558;2023-02-01T01:33:36;9.70;;;6.47;;
7108;SDS011;29079;41.930;25.558;2023-02-01T01:38:44;11.00;;;7.18;;
7108;SDS011;29079;41.930;25.558;2023-02-01T01:41:19;12.98;;;7.22;;
7108;SDS011;29079;41.930;25.558;2023-02-01T01:43:55;9.85;;;6.43;;
7108;SDS011;29079;41.930;25.558;2023-02-01T01:46:31;9.15;;;6.07;;
7108;SDS011;29079;41.930;25.558;2023-02-01T01:49:06;10.82;;;5.82;;
7108;SDS011;29079;41.930;25.558;2023-02-01T01:51:54;9.02;;;5.38;;
7108;SDS011;29079;41.930;25.558;2023-02-01T01:54:32;9.15;;;5.43;;
7108;SDS011;29079;41.930;25.558;2023-02-01T01:57:08;7.40;;;5.47;;
7108;SDS011;29079;41.930;25.558;2023-02-01T01:59:46;10.27;;;4.68;;
7108;SDS011;29079;41.930;25.558;2023-02-01T02:02:24;8.02;;;5.38;;
7108;SDS011;29079;41.930;25.558;2023-02-01T02:04:57;6.75;;;4.10;;
7108;SDS011;29079;41.930;25.558;2023-02-01T02:07:32;10.63;;;5.45;;
7108;SDS011;29079;41.930;25.558;2023-02-01T02:10:11;6.82;;;4.25;;
7108;SDS011;29079;41.930;25.558;2023-02-01T02:12:46;6.03;;;4.53;;
7108;SDS011;29079;41.930;25.558;2023-02-01T02:15:21;7.32;;;4.70;;
7108;SDS011;29079;41.930;25.558;2023-02-01T02:17:57;8.68;;;5.60;;
7108;SDS011;29079;41.930;25.558;2023-02-01T02:20:45;15.52;;;7.30;;
7108;SDS011;29079;41.930;25.558;2023-02-01T02:26:54;7.18;;;4.13;;
7108;SDS011;29079;41.930;25.558;2023-02-01T02:29:43;6.80;;;3.95;;
7108;SDS011;29079;41.930;25.558;2023-02-01T02:32:47;6.53;;;4.20;;
7108;SDS011;29079;41.930;25.558;2023-02-01T02:35:43;8.93;;;5.03;;
7108;SDS011;29079;41.930;25.558;2023-02-01T02:38:22;6.35;;;4.45;;
7108;SDS011;29079;41.930;25.558;2023-02-01T02:41:13;5.60;;;4.28;;
7108;SDS011;29079;41.930;25.558;2023-02-01T02:44:11;4.85;;;3.70;;
7108;SDS011;29079;41.930;25.558;2023-02-01T02:50:03;4.10;;;3.58;;
7108;SDS011;29079;41.930;25.558;2023-02-01T02:53:02;6.80;;;4.40;;
7108;SDS011;29079;41.930;25.558;2023-02-01T02:55:58;4.68;;;3.17;;
7108;SDS011;29079;41.930;25.558;2023-02-01T02:58:50;4.45;;;3.45;;
7108;SDS011;29079;41.930;25.558;2023-02-01T03:01:42;8.07;;;4.32;;
7108;SDS011;29079;41.930;25.558;2023-02-01T03:04:33;7.25;;;4.22;;
7108;SDS011;29079;41.930;25.558;2023-02-01T03:07:11;7.28;;;4.63;;
7108;SDS011;29079;41.930;25.558;2023-02-01T03:09:47;6.05;;;4.28;;
7108;SDS011;29079;41.930;25.558;2023-02-01T03:12:22;5.43;;;4.10;;
7108;SDS011;29079;41.930;25.558;2023-02-01T03:15:31;4.72;;;3.75;;
7108;SDS011;29079;41.930;25.558;2023-02-01T03:18:10;9.57;;;4.30;;
7108;SDS011;29079;41.930;25.558;2023-02-01T03:20:48;4.13;;;3.45;;
7108;SDS011;29079;41.930;25.558;2023-02-01T03:23:26;10.38;;;4.47;;
7108;SDS011;29079;41.930;25.558;2023-02-01T03:26:06;6.10;;;4.72;;
7108;SDS011;29079;41.930;25.558;2023-02-01T03:28:43;8.05;;;5.07;;
7108;SDS011;29079;41.930;25.558;2023-02-01T03:31:20;8.57;;;5.30;;
7108;SDS011;29079;41.930;25.558;2023-02-01T03:33:55;5.60;;;4.53;;
7108;SDS011;29079;41.930;25.558;2023-02-01T03:36:29;17.10;;;5.53;;
7108;SDS011;29079;41.930;25.558;2023-02-01T03:39:09;5.82;;;4.03;;
7108;SDS011;29079;41.930;25.558;2023-02-01T03:41:50;7.05;;;4.88;;
7108;SDS011;29079;41.930;25.558;2023-02-01T03:44:28;8.38;;;4.53;;
7108;SDS011;29079;41.930;25.558;2023-02-01T03:47:07;6.80;;;4.15;;
7108;SDS011;29079;41.930;25.558;2023-02-01T03:49:45;6.47;;;4.45;;
7108;SDS011;29079;41.930;25.558;2023-02-01T03:52:22;6.47;;;4.53;;
7108;SDS011;29079;41.930;25.558;2023-02-01T03:54:59;8.20;;;5.10;;
7108;SDS011;29079;41.930;25.558;2023-02-01T03:57:35;9.35;;;4.70;;
7108;SDS011;29079;41.930;25.558;2023-02-01T04:00:15;9.50;;;3.85;;
7108;SDS011;29079;41.930;25.558;2023-02-01T04:02:50;7.25;;;3.90;;
7108;SDS011;29079;41.930;25.558;2023-02-01T04:05:25;7.10;;;4.40;;
7108;SDS011;29079;41.930;25.558;2023-02-01T04:07:58;7.00;;;3.88;;
7108;SDS011;29079;41.930;25.558;2023-02-01T04:10:32;4.72;;;3.30;;
7108;SDS011;29079;41.930;25.558;2023-02-01T04:13:07;6.55;;;4.13;;
7108;SDS011;29079;41.930;25.558;2023-02-01T04:15:41;7.70;;;3.95;;
7108;SDS011;29079;41.930;25.558;2023-02-01T04:18:14;5.53;;;4.68;;
7108;SDS011;29079;41.930;25.558;2023-02-01T04:20:48;4.50;;;3.80;;
7108;SDS011;29079;41.930;25.558;2023-02-01T04:23:21;9.90;;;4.43;;
7108;SDS011;29079;41.930;25.558;2023-02-01T04:25:58;7.03;;;4.20;;
7108;SDS011;29079;41.930;25.558;2023-02-01T04:28:33;6.53;;;4.63;;
7108;SDS011;29079;41.930;25.558;2023-02-01T04:31:07;8.32;;;4.88;;
7108;SDS011;29079;41.930;25.558;2023-02-01T04:33:40;8.63;;;5.22;;
7108;SDS011;29079;41.930;25.558;2023-02-01T04:36:14;6.72;;;4.68;;
7108;SDS011;29079;41.930;25.558;2023-02-01T04:38:51;7.28;;;4.35;;
7108;SDS011;29079;41.930;25.558;2023-02-01T04:41:25;6.97;;;4.57;;
7108;SDS011;29079;41.930;25.558;2023-02-01T04:44:00;6.85;;;4.80;;
7108;SDS011;29079;41.930;25.558;2023-02-01T04:46:33;7.78;;;4.20;;
7108;SDS011;29079;41.930;25.558;2023-02-01T04:49:07;7.03;;;4.22;;
7108;SDS011;29079;41.930;25.558;2023-02-01T04:51:42;7.43;;;4.38;;
7108;SDS011;29079;41.930;25.558;2023-02-01T04:54:16;8.25;;;4.25;;
7108;SDS011;29079;41.930;25.558;2023-02-01T04:56:49;6.32;;;4.45;;
7108;SDS011;29079;41.930;25.558;2023-02-01T04:59:24;6.03;;;4.47;;
7108;SDS011;29079;41.930;25.558;2023-02-01T05:01:57;7.20;;;5.00;;
7108;SDS011;29079;41.930;25.558;2023-02-01T05:04:31;11.57;;;6.57;;
7108;SDS011;29079;41.930;25.558;2023-02-01T05:07:04;14.82;;;8.05;;
7108;SDS011;29079;41.930;25.558;2023-02-01T05:09:38;46.55;;;19.20;;
7108;SDS011;29079;41.930;25.558;2023-02-01T05:12:12;74.05;;;25.70;;
7108;SDS011;29079;41.930;25.558;2023-02-01T05:15:05;44.78;;;18.50;;
7108;SDS011;29079;41.930;25.558;2023-02-01T05:17:40;35.50;;;15.55;;
7108;SDS011;29079;41.930;25.558;2023-02-01T05:20:14;28.67;;;16.10;;
7108;SDS011;29079;41.930;25.558;2023-02-01T05:22:47;17.02;;;8.55;;
7108;SDS011;29079;41.930;25.558;2023-02-01T05:25:20;14.65;;;8.25;;
7108;SDS011;29079;41.930;25.558;2023-02-01T05:27:53;14.63;;;7.22;;
7108;SDS011;29079;41.930;25.558;2023-02-01T05:30:28;12.23;;;6.22;;
7108;SDS011;29079;41.930;25.558;2023-02-01T05:33:04;11.30;;;6.40;;
7108;SDS011;29079;41.930;25.558;2023-02-01T05:35:38;9.15;;;5.55;;
7108;SDS011;29079;41.930;25.558;2023-02-01T05:38:14;10.48;;;6.05;;
7108;SDS011;29079;41.930;25.558;2023-02-01T05:40:48;12.50;;;7.25;;
7108;SDS011;29079;41.930;25.558;2023-02-01T05:43:21;12.13;;;7.20;;
7108;SDS011;29079;41.930;25.558;2023-02-01T05:45:56;20.65;;;12.40;;
7108;SDS011;29079;41.930;25.558;2023-02-01T05:48:30;21.58;;;11.43;;
7108;SDS011;29079;41.930;25.558;2023-02-01T05:51:03;16.20;;;8.50;;
7108;SDS011;29079;41.930;25.558;2023-02-01T05:53:37;23.17;;;7.75;;
7108;SDS011;29079;41.930;25.558;2023-02-01T05:56:10;18.77;;;8.68;;
7108;SDS011;29079;41.930;25.558;2023-02-01T05:58:44;26.05;;;10.98;;
7108;SDS011;29079;41.930;25.558;2023-02-01T06:01:18;14.38;;;8.20;;
7108;SDS011;29079;41.930;25.558;2023-02-01T06:03:52;15.18;;;8.18;;
7108;SDS011;29079;41.930;25.558;2023-02-01T06:06:25;16.45;;;8.60;;
7108;SDS011;29079;41.930;25.558;2023-02-01T06:08:59;17.92;;;9.73;;
7108;SDS011;29079;41.930;25.558;2023-02-01T06:11:32;12.55;;;8.13;;
7108;SDS011;29079;41.930;25.558;2023-02-01T06:14:06;23.45;;;10.13;;
7108;SDS011;29079;41.930;25.558;2023-02-01T06:16:40;25.50;;;12.60;;
7108;SDS011;29079;41.930;25.558;2023-02-01T06:19:14;33.33;;;13.38;;
7108;SDS011;29079;41.930;25.558;2023-02-01T06:24:21;7.67;;;6.10;;
7108;SDS011;29079;41.930;25.558;2023-02-01T06:26:55;11.13;;;7.35;;
7108;SDS011;29079;41.930;25.558;2023-02-01T06:29:28;15.80;;;8.27;;
7108;SDS011;29079;41.930;25.558;2023-02-01T06:32:03;11.48;;;7.30;;
7108;SDS011;29079;41.930;25.558;2023-02-01T06:34:36;13.25;;;7.38;;
7108;SDS011;29079;41.930;25.558;2023-02-01T06:37:11;9.05;;;6.63;;
7108;SDS011;29079;41.930;25.558;2023-02-01T06:39:44;16.90;;;7.40;;
7108;SDS011;29079;41.930;25.558;2023-02-01T06:42:18;14.10;;;8.35;;
7108;SDS011;29079;41.930;25.558;2023-02-01T06:44:51;15.48;;;8.93;;
7108;SDS011;29079;41.930;25.558;2023-02-01T06:47:26;14.18;;;7.40;;
7108;SDS011;29079;41.930;25.558;2023-02-01T06:50:01;14.48;;;7.47;;
7108;SDS011;29079;41.930;25.558;2023-02-01T06:52:35;11.73;;;6.97;;
7108;SDS011;29079;41.930;25.558;2023-02-01T06:55:09;10.10;;;6.57;;
7108;SDS011;29079;41.930;25.558;2023-02-01T06:57:43;11.95;;;7.38;;
7108;SDS011;29079;41.930;25.558;2023-02-01T07:00:16;10.85;;;6.70;;
7108;SDS011;29079;41.930;25.558;2023-02-01T07:02:51;9.57;;;6.53;;
7108;SDS011;29079;41.930;25.558;2023-02-01T07:05:25;10.63;;;6.78;;
7108;SDS011;29079;41.930;25.558;2023-02-01T07:07:58;16.65;;;7.15;;
7108;SDS011;29079;41.930;25.558;2023-02-01T07:10:33;15.25;;;7.88;;
7108;SDS011;29079;41.930;25.558;2023-02-01T07:13:07;14.75;;;7.03;;
7108;SDS011;29079;41.930;25.558;2023-02-01T07:15:41;10.27;;;5.40;;
7108;SDS011;29079;41.930;25.558;2023-02-01T07:20:49;18.65;;;8.82;;
7108;SDS011;29079;41.930;25.558;2023-02-01T07:23:23;12.60;;;6.78;;
7108;SDS011;29079;41.930;25.558;2023-02-01T07:25:58;10.60;;;5.90;;
7108;SDS011;29079;41.930;25.558;2023-02-01T07:28:33;10.25;;;6.55;;
7108;SDS011;29079;41.930;25.558;2023-02-01T07:31:08;6.68;;;4.95;;
7108;SDS011;29079;41.930;25.558;2023-02-01T07:33:44;7.25;;;4.40;;
7108;SDS011;29079;41.930;25.558;2023-02-01T07:36:18;8.73;;;5.97;;
7108;SDS011;29079;41.930;25.558;2023-02-01T07:38:52;9.90;;;5.95;;
7108;SDS011;29079;41.930;25.558;2023-02-01T07:41:28;13.57;;;8.52;;
7108;SDS011;29079;41.930;25.558;2023-02-01T07:44:01;11.85;;;6.43;;
7108;SDS011;29079;41.930;25.558;2023-02-01T07:46:34;11.65;;;6.20;;
7108;SDS011;29079;41.930;25.558;2023-02-01T07:49:10;10.70;;;7.70;;
7108;SDS011;29079;41.930;25.558;2023-02-01T07:51:45;28.55;;;15.90;;
7108;SDS011;29079;41.930;25.558;2023-02-01T07:54:19;17.65;;;8.85;;
7108;SDS011;29079;41.930;25.558;2023-02-01T07:56:52;12.95;;;6.68;;
7108;SDS011;29079;41.930;25.558;2023-02-01T07:59:26;10.55;;;6.30;;
7108;SDS011;29079;41.930;25.558;2023-02-01T08:01:59;17.73;;;8.15;;
7108;SDS011;29079;41.930;25.558;2023-02-01T08:04:33;17.42;;;8.57;;
7108;SDS011;29079;41.930;25.558;2023-02-01T08:07:06;12.75;;;8.30;;
7108;SDS011;29079;41.930;25.558;2023-02-01T08:09:39;22.17;;;9.77;;
7108;SDS011;29079;41.930;25.558;2023-02-01T08:12:14;12.07;;;7.50;;
7108;SDS011;29079;41.930;25.558;2023-02-01T08:14:49;8.40;;;6.38;;
7108;SDS011;29079;41.930;25.558;2023-02-01T08:17:22;7.65;;;5.82;;
7108;SDS011;29079;41.930;25.558;2023-02-01T08:19:58;11.95;;;6.28;;
7108;SDS011;29079;41.930;25.558;2023-02-01T08:22:31;15.15;;;5.88;;
7108;SDS011;29079;41.930;25.558;2023-02-01T08:25:05;9.48;;;6.38;;
7108;SDS011;29079;41.930;25.558;2023-02-01T08:27:40;9.85;;;6.20;;
7108;SDS011;29079;41.930;25.558;2023-02-01T08:30:13;13.40;;;7.40;;
7108;SDS011;29079;41.930;25.558;2023-02-01T08:35:21;28.40;;;13.35;;
7108;SDS011;29079;41.930;25.558;2023-02-01T08:38:13;12.05;;;6.88;;
7108;SDS011;29079;41.930;25.558;2023-02-01T08:40:46;7.80;;;5.82;;
7108;SDS011;29079;41.930;25.558;2023-02-01T08:43:19;10.20;;;6.20;;
7108;SDS011;29079;41.930;25.558;2023-02-01T08:45:53;11.02;;;6.60;;
7108;SDS011;29079;41.930;25.558;2023-02-01T08:48:28;10.20;;;6.32;;
7108;SDS011;29079;41.930;25.558;2023-02-01T08:51:03;9.77;;;5.25;;
7108;SDS011;29079;41.930;25.558;2023-02-01T08:53:38;8.38;;;5.65;;
7108;SDS011;29079;41.930;25.558;2023-02-01T08:56:14;9.05;;;5.38;;
7108;SDS011;29079;41.930;25.558;2023-02-01T08:58:48;12.25;;;6.63;;
7108;SDS011;29079;41.930;25.558;2023-02-01T09:01:21;9.25;;;5.40;;
7108;SDS011;29079;41.930;25.558;2023-02-01T09:03:55;10.23;;;5.90;;
7108;SDS011;29079;41.930;25.558;2023-02-01T09:06:30;6.22;;;4.70;;
7108;SDS011;29079;41.930;25.558;2023-02-01T09:09:03;8.75;;;5.07;;
7108;SDS011;29079;41.930;25.558;2023-02-01T09:11:36;11.73;;;5.57;;
7108;SDS011;29079;41.930;25.558;2023-02-01T09:14:10;6.15;;;4.28;;
7108;SDS011;29079;41.930;25.558;2023-02-01T09:19:17;7.95;;;4.50;;
7108;SDS011;29079;41.930;25.558;2023-02-01T09:21:59;9.65;;;6.07;;
7108;SDS011;29079;41.930;25.558;2023-02-01T09:24:32;6.72;;;4.72;;
7108;SDS011;29079;41.930;25.558;2023-02-01T09:27:06;8.15;;;4.82;;
7108;SDS011;29079;41.930;25.558;2023-02-01T09:29:39;6.75;;;3.50;;
7108;SDS011;29079;41.930;25.558;2023-02-01T09:32:12;8.52;;;4.40;;
7108;SDS011;29079;41.930;25.558;2023-02-01T09:34:46;8.60;;;5.47;;
7108;SDS011;29079;41.930;25.558;2023-02-01T09:37:21;10.60;;;4.45;;
7108;SDS011;29079;41.930;25.558;2023-02-01T09:39:55;4.78;;;3.05;;
7108;SDS011;29079;41.930;25.558;2023-02-01T09:42:35;5.68;;;3.60;;
7108;SDS011;29079;41.930;25.558;2023-02-01T09:45:24;10.10;;;5.28;;
7108;SDS011;29079;41.930;25.558;2023-02-01T09:48:08;9.68;;;4.13;;
7108;SDS011;29079;41.930;25.558;2023-02-01T09:50:49;8.23;;;4.82;;
7108;SDS011;29079;41.930;25.558;2023-02-01T09:53:29;8.00;;;4.53;;
7108;SDS011;29079;41.930;25.558;2023-02-01T09:56:06;7.00;;;3.47;;
7108;SDS011;29079;41.930;25.558;2023-02-01T09:58:44;5.88;;;4.00;;
7108;SDS011;29079;41.930;25.558;2023-02-01T10:01:25;12.50;;;5.22;;
7108;SDS011;29079;41.930;25.558;2023-02-01T10:04:02;9.82;;;4.57;;
7108;SDS011;29079;41.930;25.558;2023-02-01T10:06:41;5.30;;;3.83;;
7108;SDS011;29079;41.930;25.558;2023-02-01T10:09:32;5.28;;;3.75;;
7108;SDS011;29079;41.930;25.558;2023-02-01T10:12:26;5.90;;;3.35;;
7108;SDS011;29079;41.930;25.558;2023-02-01T10:18:21;6.43;;;3.85;;
7108;SDS011;29079;41.930;25.558;2023-02-01T10:21:09;6.22;;;3.88;;
7108;SDS011;29079;41.930;25.558;2023-02-01T10:27:07;10.30;;;6.82;;
7108;SDS011;29079;41.930;25.558;2023-02-01T10:29:46;4.10;;;2.90;;
7108;SDS011;29079;41.930;25.558;2023-02-01T10:32:27;11.32;;;4.28;;
7108;SDS011;29079;41.930;25.558;2023-02-01T10:35:07;4.97;;;3.42;;
7108;SDS011;29079;41.930;25.558;2023-02-01T10:37:46;5.18;;;3.40;;
7108;SDS011;29079;41.930;25.558;2023-02-01T10:40:20;4.55;;;3.40;;
7108;SDS011;29079;41.930;25.558;2023-02-01T10:42:58;5.40;;;3.25;;
7108;SDS011;29079;41.930;25.558;2023-02-01T10:45:34;3.83;;;2.95;;
7108;SDS011;29079;41.930;25.558;2023-02-01T10:48:07;5.60;;;3.53;;
7108;SDS011;29079;41.930;25.558;2023-02-01T10:50:44;7.03;;;4.22;;
7108;SDS011;29079;41.930;25.558;2023-02-01T10:53:24;8.15;;;3.85;;
7108;SDS011;29079;41.930;25.558;2023-02-01T10:56:05;5.80;;;3.78;;
7108;SDS011;29079;41.930;25.558;2023-02-01T10:58:44;3.70;;;2.80;;
7108;SDS011;29079;41.930;25.558;2023-02-01T11:01:21;6.75;;;3.15;;
7108;SDS011;29079;41.930;25.558;2023-02-01T11:03:58;5.70;;;3.42;;
7108;SDS011;29079;41.930;25.558;2023-02-01T11:06:33;5.03;;;3.35;;
7108;SDS011;29079;41.930;25.558;2023-02-01T11:09:10;5.38;;;4.07;;
7108;SDS011;29079;41.930;25.558;2023-02-01T11:11:53;8.27;;;4.07;;
7108;SDS011;29079;41.930;25.558;2023-02-01T11:14:35;9.85;;;4.90;;
7108;SDS011;29079;41.930;25.558;2023-02-01T11:17:24;6.97;;;3.65;;
7108;SDS011;29079;41.930;25.558;2023-02-01T11:20:00;6.32;;;4.10;;
7108;SDS011;29079;41.930;25.558;2023-02-01T11:22:35;6.75;;;3.10;;
7108;SDS011;29079;41.930;25.558;2023-02-01T11:25:09;6.65;;;3.80;;
7108;SDS011;29079;41.930;25.558;2023-02-01T11:27:47;6.70;;;3.70;;
7108;SDS011;29079;41.930;25.558;2023-02-01T11:30:30;12.77;;;6.28;;
7108;SDS011;29079;41.930;25.558;2023-02-01T11:33:07;8.95;;;4.70;;
7108;SDS011;29079;41.930;25.558;2023-02-01T11:35:48;7.28;;;4.60;;
7108;SDS011;29079;41.930;25.558;2023-02-01T11:38:27;4.78;;;3.22;;
7108;SDS011;29079;41.930;25.558;2023-02-01T11:41:12;7.97;;;3.33;;
7108;SDS011;29079;41.930;25.558;2023-02-01T11:43:50;4.40;;;2.78;;
7108;SDS011;29079;41.930;25.558;2023-02-01T11:46:29;4.68;;;3.55;;
7108;SDS011;29079;41.930;25.558;2023-02-01T11:49:13;7.97;;;3.58;;
7108;SDS011;29079;41.930;25.558;2023-02-01T11:51:54;10.15;;;3.22;;
7108;SDS011;29079;41.930;25.558;2023-02-01T11:54:48;5.10;;;3.15;;
7108;SDS011;29079;41.930;25.558;2023-02-01T11:57:37;6.32;;;3.05;;
7108;SDS011;29079;41.930;25.558;2023-02-01T12:00:31;6.90;;;4.57;;
7108;SDS011;29079;41.930;25.558;2023-02-01T12:03:31;8.55;;;4.30;;
7108;SDS011;29079;41.930;25.558;2023-02-01T12:06:32;9.20;;;5.60;;
7108;SDS011;29079;41.930;25.558;2023-02-01T12:09:26;3.83;;;2.88;;
7108;SDS011;29079;41.930;25.558;2023-02-01T12:12:15;4.93;;;3.00;;
7108;SDS011;29079;41.930;25.558;2023-02-01T12:18:09;5.10;;;2.75;;
7108;SDS011;29079;41.930;25.558;2023-02-01T12:21:05;4.47;;;3.28;;
7108;SDS011;29079;41.930;25.558;2023-02-01T12:23:54;6.70;;;2.80;;
7108;SDS011;29079;41.930;25.558;2023-02-01T12:26:44;6.30;;;2.45;;
7108;SDS011;29079;41.930;25.558;2023-02-01T12:32:36;4.38;;;2.42;;
7108;SDS011;29079;41.930;25.558;2023-02-01T12:35:24;7.53;;;2.47;;
7108;SDS011;29079;41.930;25.558;2023-02-01T12:38:20;4.32;;;2.85;;
7108;SDS011;29079;41.930;25.558;2023-02-01T12:41:09;3.67;;;1.92;;
7108;SDS011;29079;41.930;25.558;2023-02-01T12:43:53;4.85;;;2.05;;
7108;SDS011;29079;41.930;25.558;2023-02-01T12:46:30;2.60;;;2.00;;
7108;SDS011;29079;41.930;25.558;2023-02-01T12:49:08;3.53;;;2.10;;
7108;SDS011;29079;41.930;25.558;2023-02-01T12:51:46;4.85;;;2.90;;
7108;SDS011;29079;41.930;25.558;2023-02-01T12:54:25;7.43;;;2.95;;
7108;SDS011;29079;41.930;25.558;2023-02-01T12:57:04;8.55;;;4.75;;
7108;SDS011;29079;41.930;25.558;2023-02-01T12:59:44;3.25;;;2.45;;
7108;SDS011;29079;41.930;25.558;2023-02-01T13:02:25;6.00;;;3.67;;
7108;SDS011;29079;41.930;25.558;2023-02-01T13:05:12;7.32;;;3.35;;
7108;SDS011;29079;41.930;25.558;2023-02-01T13:07:50;5.95;;;2.88;;
7108;SDS011;29079;41.930;25.558;2023-02-01T13:10:30;7.03;;;3.38;;
7108;SDS011;29079;41.930;25.558;2023-02-01T13:13:09;7.10;;;2.40;;
7108;SDS011;29079;41.930;25.558;2023-02-01T13:15:49;7.15;;;2.53;;
7108;SDS011;29079;41.930;25.558;2023-02-01T13:18:31;6.13;;;3.53;;
7108;SDS011;29079;41.930;25.558;2023-02-01T13:21:10;3.08;;;2.35;;
7108;SDS011;29079;41.930;25.558;2023-02-01T13:23:47;5.63;;;2.15;;
7108;SDS011;29079;41.930;25.558;2023-02-01T13:26:24;3.17;;;1.65;;
7108;SDS011;29079;41.930;25.558;2023-02-01T13:28:58;2.55;;;2.28;;
7108;SDS011;29079;41.930;25.558;2023-02-01T13:31:45;4.45;;;2.08;;
7108;SDS011;29079;41.930;25.558;2023-02-01T13:37:57;4.50;;;2.60;;
7108;SDS011;29079;41.930;25.558;2023-02-01T13:40:59;6.05;;;3.30;;
7108;SDS011;29079;41.930;25.558;2023-02-01T13:43:49;8.50;;;4.30;;
7108;SDS011;29079;41.930;25.558;2023-02-01T13:46:26;12.02;;;5.75;;
7108;SDS011;29079;41.930;25.558;2023-02-01T13:49:01;3.53;;;2.75;;
7108;SDS011;29079;41.930;25.558;2023-02-01T13:51:36;3.80;;;2.33;;
7108;SDS011;29079;41.930;25.558;2023-02-01T13:54:24;4.82;;;2.47;;
7108;SDS011;29079;41.930;25.558;2023-02-01T13:57:00;3.50;;;2.15;;
7108;SDS011;29079;41.930;25.558;2023-02-01T13:59:45;4.53;;;3.20;;
7108;SDS011;29079;41.930;25.558;2023-02-01T14:02:36;5.90;;;2.53;;
7108;SDS011;29079;41.930;25.558;2023-02-01T14:08:37;6.03;;;3.45;;
7108;SDS011;29079;41.930;25.558;2023-02-01T14:11:32;5.60;;;3.40;;
7108;SDS011;29079;41.930;25.558;2023-02-01T14:17:30;6.22;;;2.42;;
7108;SDS011;29079;41.930;25.558;2023-02-01T14:26:18;3.95;;;2.75;;
7108;SDS011;29079;41.930;25.558;2023-02-01T14:28:56;7.32;;;2.70;;
7108;SDS011;29079;41.930;25.558;2023-02-01T14:31:37;4.65;;;2.40;;
7108;SDS011;29079;41.930;25.558;2023-02-01T14:34:16;6.30;;;3.15;;
7108;SDS011;29079;41.930;25.558;2023-02-01T14:36:55;9.43;;;3.17;;
7108;SDS011;29079;41.930;25.558;2023-02-01T14:39:36;4.95;;;2.67;;
7108;SDS011;29079;41.930;25.558;2023-02-01T14:42:24;6.35;;;4.00;;
7108;SDS011;29079;41.930;25.558;2023-02-01T14:48:43;8.45;;;3.78;;
7108;SDS011;29079;41.930;25.558;2023-02-01T14:51:18;4.80;;;3.65;;
7108;SDS011;29079;41.930;25.558;2023-02-01T14:53:53;6.80;;;2.97;;
7108;SDS011;29079;41.930;25.558;2023-02-01T14:59:01;7.07;;;3.45;;
7108;SDS011;29079;41.930;25.558;2023-02-01T15:01:46;6.32;;;3.10;;
7108;SDS011;29079;41.930;25.558;2023-02-01T15:04:26;6.72;;;2.88;;
7108;SDS011;29079;41.930;25.558;2023-02-01T15:07:04;3.30;;;2.92;;
7108;SDS011;29079;41.930;25.558;2023-02-01T15:09:42;5.00;;;3.45;;
7108;SDS011;29079;41.930;25.558;2023-02-01T15:12:22;6.22;;;4.30;;
7108;SDS011;29079;41.930;25.558;2023-02-01T15:15:03;4.57;;;2.65;;
7108;SDS011;29079;41.930;25.558;2023-02-01T15:17:51;8.80;;;4.10;;
7108;SDS011;29079;41.930;25.558;2023-02-01T15:20:29;6.65;;;3.78;;
7108;SDS011;29079;41.930;25.558;2023-02-01T15:23:05;5.13;;;3.60;;
7108;SDS011;29079;41.930;25.558;2023-02-01T15:25:48;9.95;;;3.67;;
7108;SDS011;29079;41.930;25.558;2023-02-01T15:28:24;9.55;;;5.10;;
7108;SDS011;29079;41.930;25.558;2023-02-01T15:30:59;11.13;;;3.75;;
7108;SDS011;29079;41.930;25.558;2023-02-01T15:33:34;7.88;;;3.75;;
7108;SDS011;29079;41.930;25.558;2023-02-01T15:36:10;6.43;;;3.72;;
7108;SDS011;29079;41.930;25.558;2023-02-01T15:38:44;7.57;;;3.78;;
7108;SDS011;29079;41.930;25.558;2023-02-01T15:41:19;7.97;;;4.00;;
7108;SDS011;29079;41.930;25.558;2023-02-01T15:44:02;12.77;;;5.93;;
7108;SDS011;29079;41.930;25.558;2023-02-01T15:49:17;5.15;;;3.03;;
7108;SDS011;29079;41.930;25.558;2023-02-01T15:51:57;8.43;;;3.90;;
7108;SDS011;29079;41.930;25.558;2023-02-01T15:54:36;9.45;;;4.07;;
7108;SDS011;29079;41.930;25.558;2023-02-01T15:57:18;6.88;;;4.13;;
7108;SDS011;29079;41.930;25.558;2023-02-01T15:59:54;8.98;;;4.10;;
7108;SDS011;29079;41.930;25.558;2023-02-01T16:05:25;9.77;;;4.32;;
7108;SDS011;29079;41.930;25.558;2023-02-01T16:08:06;8.85;;;5.32;;
7108;SDS011;29079;41.930;25.558;2023-02-01T16:10:46;9.13;;;4.85;;
7108;SDS011;29079;41.930;25.558;2023-02-01T16:13:22;7.28;;;4.85;;
7108;SDS011;29079;41.930;25.558;2023-02-01T16:15:56;12.43;;;5.13;;
7108;SDS011;29079;41.930;25.558;2023-02-01T16:18:30;13.45;;;6.15;;
7108;SDS011;29079;41.930;25.558;2023-02-01T16:21:03;11.07;;;5.35;;
7108;SDS011;29079;41.930;25.558;2023-02-01T16:23:41;10.43;;;5.13;;
7108;SDS011;29079;41.930;25.558;2023-02-01T16:26:14;14.43;;;5.47;;
7108;SDS011;29079;41.930;25.558;2023-02-01T16:28:47;8.25;;;5.15;;
7108;SDS011;29079;41.930;25.558;2023-02-01T16:31:22;11.85;;;5.07;;
7108;SDS011;29079;41.930;25.558;2023-02-01T16:34:00;13.88;;;7.25;;
7108;SDS011;29079;41.930;25.558;2023-02-01T16:36:34;17.67;;;7.65;;
7108;SDS011;29079;41.930;25.558;2023-02-01T16:39:09;14.82;;;6.65;;
7108;SDS011;29079;41.930;25.558;2023-02-01T16:41:45;18.45;;;7.80;;
7108;SDS011;29079;41.930;25.558;2023-02-01T16:44:19;18.27;;;7.78;;
7108;SDS011;29079;41.930;25.558;2023-02-01T16:46:52;19.25;;;9.02;;
7108;SDS011;29079;41.930;25.558;2023-02-01T16:49:26;21.75;;;10.32;;